sensor_id;sensor_type;location;lat;lon;timestamp;P1;durP1;ratioP1;P2;durP2;ratioP2
3197;SDS011;1611;49.394;11.136;2023-02-13T00:02:22;2.17;;;1.95;;
3197;SDS011;1611;49.394;11.136;2023-02-13T00:04:49;2.10;;;2.00;;
3197;SDS011;1611;49.394;11.136;2023-02-13T00:07:16;1.90;;;1.80;;
3197;SDS011;1611;49.394;11.136;2023-02-13T00:09:44;2.47;;;2.25;;
3197;SDS011;1611;49.394;11.136;2023-02-13T00:12:11;2.85;;;2.05;;
3197;SDS011;1611;49.394;11.136;2023-02-13T00:14:38;2.10;;;2.00;;
3197;SDS011;1611;49.394;11.136;2023-02-13T00:17:05;2.35;;;1.40;;
3197;SDS011;1611;49.394;11.136;2023-02-13T00:19:32;3.40;;;2.20;;
3197;SDS011;1611;49.394;11.136;2023-02-13T00:21:59;2.83;;;1.75;;
3197;SDS011;1611;49.394;11.136;2023-02-13T00:24:26;2.30;;;2.20;;
3197;SDS011;1611;49.394;11.136;2023-02-13T00:26:54;4.22;;;2.30;;
3197;SDS011;1611;49.394;11.136;2023-02-13T00:29:20;1.80;;;1.70;;
3197;SDS011;1611;49.394;11.136;2023-02-13T00:31:47;4.30;;;1.83;;
3197;SDS011;1611;49.394;11.136;2023-02-13T00:34:14;1.55;;;1.55;;
3197;SDS011;1611;49.394;11.136;2023-02-13T00:36:41;1.58;;;1.58;;
3197;SDS011;1611;49.394;11.136;2023-02-13T00:39:08;1.95;;;1.85;;
3197;SDS011;1611;49.394;11.136;2023-02-13T00:41:37;1.75;;;1.65;;
3197;SDS011;1611;49.394;11.136;2023-02-13T00:44:05;2.20;;;1.45;;
3197;SDS011;1611;49.394;11.136;2023-02-13T00:46:32;1.70;;;1.60;;
3197;SDS011;1611;49.394;11.136;2023-02-13T00:48:58;11.10;;;2.00;;
3197;SDS011;1611;49.394;11.136;2023-02-13T00:51:25;1.95;;;1.70;;
3197;SDS011;1611;49.394;11.136;2023-02-13T00:53:52;1.77;;;1.77;;
3197;SDS011;1611;49.394;11.136;2023-02-13T00:56:19;1.63;;;1.52;;
3197;SDS011;1611;49.394;11.136;2023-02-13T00:58:45;3.50;;;1.55;;
3197;SDS011;1611;49.394;11.136;2023-02-13T01:01:14;1.60;;;1.50;;
3197;SDS011;1611;49.394;11.136;2023-02-13T01:03:40;2.30;;;2.10;;
3197;SDS011;1611;49.394;11.136;2023-02-13T01:06:07;1.77;;;1.75;;
3197;SDS011;1611;49.394;11.136;2023-02-13T01:08:37;1.90;;;1.80;;
3197;SDS011;1611;49.394;11.136;2023-02-13T01:11:05;4.43;;;2.35;;
3197;SDS011;1611;49.394;11.136;2023-02-13T01:13:32;3.65;;;1.75;;
3197;SDS011;1611;49.394;11.136;2023-02-13T01:15:59;1.80;;;1.70;;
3197;SDS011;1611;49.394;11.136;2023-02-13T01:18:27;2.58;;;2.40;;
3197;SDS011;1611;49.394;11.136;2023-02-13T01:20:55;2.25;;;1.85;;
3197;SDS011;1611;49.394;11.136;2023-02-13T01:23:23;2.05;;;1.95;;
3197;SDS011;1611;49.394;11.136;2023-02-13T01:25:50;1.73;;;1.63;;
3197;SDS011;1611;49.394;11.136;2023-02-13T01:28:17;1.70;;;1.67;;
3197;SDS011;1611;49.394;11.136;2023-02-13T01:30:44;2.13;;;2.03;;
3197;SDS011;1611;49.394;11.136;2023-02-13T01:33:11;2.80;;;1.80;;
3197;SDS011;1611;49.394;11.136;2023-02-13T01:35:39;2.35;;;1.60;;
3197;SDS011;1611;49.394;11.136;2023-02-13T01:38:06;2.00;;;1.90;;
3197;SDS011;1611;49.394;11.136;2023-02-13T01:40:32;2.78;;;2.38;;
3197;SDS011;1611;49.394;11.136;2023-02-13T01:42:59;2.50;;;2.30;;
3197;SDS011;1611;49.394;11.136;2023-02-13T01:45:27;2.10;;;2.00;;
3197;SDS011;1611;49.394;11.136;2023-02-13T01:47:55;1.90;;;1.75;;
3197;SDS011;1611;49.394;11.136;2023-02-13T01:50:27;2.88;;;2.50;;
3197;SDS011;1611;49.394;11.136;2023-02-13T01:53:00;2.35;;;2.15;;
3197;SDS011;1611;49.394;11.136;2023-02-13T01:55:31;3.00;;;2.38;;
3197;SDS011;1611;49.394;11.136;2023-02-13T01:58:01;4.93;;;3.03;;
3197;SDS011;1611;49.394;11.136;2023-02-13T02:00:31;4.05;;;3.70;;
3197;SDS011;1611;49.394;11.136;2023-02-13T02:03:02;5.78;;;2.80;;
3197;SDS011;1611;49.394;11.136;2023-02-13T02:05:32;4.07;;;3.70;;
3197;SDS011;1611;49.394;11.136;2023-02-13T02:08:02;5.32;;;4.72;;
3197;SDS011;1611;49.394;11.136;2023-02-13T02:10:33;7.45;;;4.93;;
3197;SDS011;1611;49.394;11.136;2023-02-13T02:13:02;4.40;;;4.00;;
3197;SDS011;1611;49.394;11.136;2023-02-13T02:15:32;3.90;;;3.60;;
3197;SDS011;1611;49.394;11.136;2023-02-13T02:17:59;4.40;;;3.83;;
3197;SDS011;1611;49.394;11.136;2023-02-13T02:20:32;8.60;;;5.05;;
3197;SDS011;1611;49.394;11.136;2023-02-13T02:26:25;5.32;;;4.35;;
3197;SDS011;1611;49.394;11.136;2023-02-13T02:29:20;7.28;;;5.05;;
3197;SDS011;1611;49.394;11.136;2023-02-13T02:32:20;9.82;;;5.57;;
3197;SDS011;1611;49.394;11.136;2023-02-13T02:35:18;7.80;;;6.00;;
3197;SDS011;1611;49.394;11.136;2023-02-13T02:37:57;9.90;;;5.57;;
3197;SDS011;1611;49.394;11.136;2023-02-13T02:40:34;7.78;;;5.57;;
3197;SDS011;1611;49.394;11.136;2023-02-13T02:43:10;14.55;;;6.45;;
3197;SDS011;1611;49.394;11.136;2023-02-13T02:45:51;7.72;;;6.38;;
3197;SDS011;1611;49.394;11.136;2023-02-13T02:48:27;11.15;;;7.03;;
3197;SDS011;1611;49.394;11.136;2023-02-13T02:51:18;11.45;;;7.78;;
3197;SDS011;1611;49.394;11.136;2023-02-13T02:53:50;7.28;;;6.28;;
3197;SDS011;1611;49.394;11.136;2023-02-13T02:56:24;9.40;;;6.88;;
3197;SDS011;1611;49.394;11.136;2023-02-13T02:58:55;10.73;;;6.32;;
3197;SDS011;1611;49.394;11.136;2023-02-13T03:01:43;8.02;;;6.03;;
3197;SDS011;1611;49.394;11.136;2023-02-13T03:04:31;9.27;;;6.28;;
3197;SDS011;1611;49.394;11.136;2023-02-13T03:07:18;15.20;;;7.80;;
3197;SDS011;1611;49.394;11.136;2023-02-13T03:09:47;10.70;;;6.43;;
3197;SDS011;1611;49.394;11.136;2023-02-13T03:12:35;17.60;;;7.68;;
3197;SDS011;1611;49.394;11.136;2023-02-13T03:15:22;11.90;;;7.40;;
3197;SDS011;1611;49.394;11.136;2023-02-13T03:17:52;8.93;;;6.35;;
3197;SDS011;1611;49.394;11.136;2023-02-13T03:20:41;11.80;;;8.10;;
3197;SDS011;1611;49.394;11.136;2023-02-13T03:23:34;9.88;;;7.78;;
3197;SDS011;1611;49.394;11.136;2023-02-13T03:26:16;8.95;;;6.25;;
3197;SDS011;1611;49.394;11.136;2023-02-13T03:29:10;13.25;;;7.65;;
3197;SDS011;1611;49.394;11.136;2023-02-13T03:32:05;13.77;;;7.15;;
3197;SDS011;1611;49.394;11.136;2023-02-13T03:34:37;12.65;;;7.57;;
3197;SDS011;1611;49.394;11.136;2023-02-13T03:37:26;12.93;;;8.32;;
3197;SDS011;1611;49.394;11.136;2023-02-13T03:40:14;12.70;;;8.40;;
3197;SDS011;1611;49.394;11.136;2023-02-13T03:42:47;13.02;;;7.70;;
3197;SDS011;1611;49.394;11.136;2023-02-13T03:45:20;14.25;;;7.70;;
3197;SDS011;1611;49.394;11.136;2023-02-13T03:48:07;13.75;;;8.10;;
3197;SDS011;1611;49.394;11.136;2023-02-13T03:50:55;12.48;;;8.27;;
3197;SDS011;1611;49.394;11.136;2023-02-13T03:53:24;12.43;;;7.97;;
3197;SDS011;1611;49.394;11.136;2023-02-13T03:55:54;8.02;;;6.53;;
3197;SDS011;1611;49.394;11.136;2023-02-13T03:58:42;14.57;;;7.70;;
3197;SDS011;1611;49.394;11.136;2023-02-13T04:01:30;8.88;;;6.68;;
3197;SDS011;1611;49.394;11.136;2023-02-13T04:04:00;9.57;;;6.95;;
3197;SDS011;1611;49.394;11.136;2023-02-13T04:06:34;10.75;;;7.18;;
3197;SDS011;1611;49.394;11.136;2023-02-13T04:09:08;10.80;;;7.70;;
3197;SDS011;1611;49.394;11.136;2023-02-13T04:11:36;11.80;;;8.27;;
3197;SDS011;1611;49.394;11.136;2023-02-13T04:14:07;10.27;;;7.00;;
3197;SDS011;1611;49.394;11.136;2023-02-13T04:16:41;13.55;;;7.90;;
3197;SDS011;1611;49.394;11.136;2023-02-13T04:19:11;13.50;;;8.15;;
3197;SDS011;1611;49.394;11.136;2023-02-13T04:21:38;13.40;;;8.30;;
3197;SDS011;1611;49.394;11.136;2023-02-13T04:24:06;10.32;;;7.15;;
3197;SDS011;1611;49.394;11.136;2023-02-13T04:26:35;12.60;;;7.78;;
3197;SDS011;1611;49.394;11.136;2023-02-13T04:29:04;15.25;;;8.07;;
3197;SDS011;1611;49.394;11.136;2023-02-13T04:31:31;9.52;;;7.13;;
3197;SDS011;1611;49.394;11.136;2023-02-13T04:33:58;15.25;;;7.78;;
3197;SDS011;1611;49.394;11.136;2023-02-13T04:36:25;11.45;;;7.32;;
3197;SDS011;1611;49.394;11.136;2023-02-13T04:38:51;9.85;;;7.45;;
3197;SDS011;1611;49.394;11.136;2023-02-13T04:41:20;12.93;;;7.88;;
3197;SDS011;1611;49.394;11.136;2023-02-13T04:43:46;8.95;;;6.53;;
3197;SDS011;1611;49.394;11.136;2023-02-13T04:46:13;15.07;;;7.55;;
3197;SDS011;1611;49.394;11.136;2023-02-13T04:48:40;12.60;;;7.82;;
3197;SDS011;1611;49.394;11.136;2023-02-13T04:51:06;12.10;;;7.82;;
3197;SDS011;1611;49.394;11.136;2023-02-13T04:53:33;10.43;;;7.75;;
3197;SDS011;1611;49.394;11.136;2023-02-13T04:56:00;14.15;;;8.40;;
3197;SDS011;1611;49.394;11.136;2023-02-13T04:58:28;13.52;;;7.97;;
3197;SDS011;1611;49.394;11.136;2023-02-13T05:00:55;15.13;;;8.52;;
3197;SDS011;1611;49.394;11.136;2023-02-13T05:03:22;13.00;;;8.25;;
3197;SDS011;1611;49.394;11.136;2023-02-13T05:05:48;10.40;;;7.53;;
3197;SDS011;1611;49.394;11.136;2023-02-13T05:08:15;13.98;;;8.57;;
3197;SDS011;1611;49.394;11.136;2023-02-13T05:10:42;10.27;;;7.40;;
3197;SDS011;1611;49.394;11.136;2023-02-13T05:13:09;14.80;;;8.13;;
3197;SDS011;1611;49.394;11.136;2023-02-13T05:15:37;13.05;;;8.27;;
3197;SDS011;1611;49.394;11.136;2023-02-13T05:18:04;10.35;;;7.45;;
3197;SDS011;1611;49.394;11.136;2023-02-13T05:20:31;9.18;;;7.07;;
3197;SDS011;1611;49.394;11.136;2023-02-13T05:22:58;10.63;;;6.55;;
3197;SDS011;1611;49.394;11.136;2023-02-13T05:25:54;9.57;;;7.47;;
3197;SDS011;1611;49.394;11.136;2023-02-13T05:28:21;15.75;;;7.20;;
3197;SDS011;1611;49.394;11.136;2023-02-13T05:31:07;13.80;;;8.32;;
3197;SDS011;1611;49.394;11.136;2023-02-13T05:33:34;11.10;;;7.38;;
3197;SDS011;1611;49.394;11.136;2023-02-13T05:36:00;11.20;;;7.90;;
3197;SDS011;1611;49.394;11.136;2023-02-13T05:38:27;11.30;;;7.55;;
3197;SDS011;1611;49.394;11.136;2023-02-13T05:40:54;11.63;;;8.10;;
3197;SDS011;1611;49.394;11.136;2023-02-13T05:43:23;11.30;;;7.30;;
3197;SDS011;1611;49.394;11.136;2023-02-13T05:45:50;11.13;;;6.68;;
3197;SDS011;1611;49.394;11.136;2023-02-13T05:48:18;11.35;;;7.30;;
3197;SDS011;1611;49.394;11.136;2023-02-13T05:50:45;12.05;;;7.90;;
3197;SDS011;1611;49.394;11.136;2023-02-13T05:53:12;12.63;;;7.43;;
3197;SDS011;1611;49.394;11.136;2023-02-13T05:55:38;13.75;;;7.85;;
3197;SDS011;1611;49.394;11.136;2023-02-13T05:58:05;8.93;;;6.43;;
3197;SDS011;1611;49.394;11.136;2023-02-13T06:00:33;8.48;;;6.45;;
3197;SDS011;1611;49.394;11.136;2023-02-13T06:03:00;15.57;;;7.20;;
3197;SDS011;1611;49.394;11.136;2023-02-13T06:05:28;8.55;;;6.05;;
3197;SDS011;1611;49.394;11.136;2023-02-13T06:07:55;9.45;;;7.45;;
3197;SDS011;1611;49.394;11.136;2023-02-13T06:10:21;9.48;;;7.07;;
3197;SDS011;1611;49.394;11.136;2023-02-13T06:12:48;13.90;;;7.43;;
3197;SDS011;1611;49.394;11.136;2023-02-13T06:15:15;10.85;;;6.68;;
3197;SDS011;1611;49.394;11.136;2023-02-13T06:17:42;11.65;;;7.10;;
3197;SDS011;1611;49.394;11.136;2023-02-13T06:20:09;13.52;;;7.05;;
3197;SDS011;1611;49.394;11.136;2023-02-13T06:22:37;13.95;;;9.00;;
3197;SDS011;1611;49.394;11.136;2023-02-13T06:25:04;14.60;;;9.77;;
3197;SDS011;1611;49.394;11.136;2023-02-13T06:27:31;12.50;;;7.38;;
3197;SDS011;1611;49.394;11.136;2023-02-13T06:29:58;9.35;;;6.85;;
3197;SDS011;1611;49.394;11.136;2023-02-13T06:32:25;9.45;;;7.03;;
3197;SDS011;1611;49.394;11.136;2023-02-13T06:34:51;11.23;;;6.85;;
3197;SDS011;1611;49.394;11.136;2023-02-13T06:37:18;9.82;;;6.45;;
3197;SDS011;1611;49.394;11.136;2023-02-13T06:39:46;9.40;;;7.10;;
3197;SDS011;1611;49.394;11.136;2023-02-13T06:42:13;11.35;;;7.13;;
3197;SDS011;1611;49.394;11.136;2023-02-13T06:44:40;9.70;;;6.90;;
3197;SDS011;1611;49.394;11.136;2023-02-13T06:47:06;11.90;;;7.97;;
3197;SDS011;1611;49.394;11.136;2023-02-13T06:49:33;10.63;;;6.80;;
3197;SDS011;1611;49.394;11.136;2023-02-13T06:52:00;9.07;;;6.75;;
3197;SDS011;1611;49.394;11.136;2023-02-13T06:54:27;12.10;;;7.60;;
3197;SDS011;1611;49.394;11.136;2023-02-13T06:56:55;12.93;;;7.45;;
3197;SDS011;1611;49.394;11.136;2023-02-13T06:59:22;13.35;;;8.98;;
3197;SDS011;1611;49.394;11.136;2023-02-13T07:01:48;10.05;;;6.50;;
3197;SDS011;1611;49.394;11.136;2023-02-13T07:04:15;12.10;;;7.28;;
3197;SDS011;1611;49.394;11.136;2023-02-13T07:06:42;10.80;;;7.13;;
3197;SDS011;1611;49.394;11.136;2023-02-13T07:09:08;12.85;;;7.25;;
3197;SDS011;1611;49.394;11.136;2023-02-13T07:11:37;15.43;;;7.07;;
3197;SDS011;1611;49.394;11.136;2023-02-13T07:14:06;25.48;;;8.82;;
3197;SDS011;1611;49.394;11.136;2023-02-13T07:16:34;10.55;;;7.60;;
3197;SDS011;1611;49.394;11.136;2023-02-13T07:19:01;15.77;;;8.07;;
3197;SDS011;1611;49.394;11.136;2023-02-13T07:21:27;15.23;;;9.00;;
3197;SDS011;1611;49.394;11.136;2023-02-13T07:23:54;18.40;;;8.15;;
3197;SDS011;1611;49.394;11.136;2023-02-13T07:26:21;17.10;;;9.23;;
3197;SDS011;1611;49.394;11.136;2023-02-13T07:28:48;15.98;;;8.52;;
3197;SDS011;1611;49.394;11.136;2023-02-13T07:31:16;29.73;;;10.00;;
3197;SDS011;1611;49.394;11.136;2023-02-13T07:33:42;18.70;;;8.77;;
3197;SDS011;1611;49.394;11.136;2023-02-13T07:36:09;14.60;;;8.73;;
3197;SDS011;1611;49.394;11.136;2023-02-13T07:38:36;21.95;;;9.40;;
3197;SDS011;1611;49.394;11.136;2023-02-13T07:41:03;15.65;;;9.20;;
3197;SDS011;1611;49.394;11.136;2023-02-13T07:43:30;16.90;;;9.32;;
3197;SDS011;1611;49.394;11.136;2023-02-13T07:45:57;16.10;;;8.80;;
3197;SDS011;1611;49.394;11.136;2023-02-13T07:48:25;18.55;;;9.85;;
3197;SDS011;1611;49.394;11.136;2023-02-13T07:50:53;31.13;;;10.43;;
3197;SDS011;1611;49.394;11.136;2023-02-13T07:53:20;24.55;;;12.68;;
3197;SDS011;1611;49.394;11.136;2023-02-13T07:55:47;18.25;;;10.98;;
3197;SDS011;1611;49.394;11.136;2023-02-13T07:58:14;23.42;;;12.10;;
3197;SDS011;1611;49.394;11.136;2023-02-13T08:00:40;17.08;;;10.95;;
3197;SDS011;1611;49.394;11.136;2023-02-13T08:03:08;29.40;;;11.68;;
3197;SDS011;1611;49.394;11.136;2023-02-13T08:05:36;22.08;;;11.43;;
3197;SDS011;1611;49.394;11.136;2023-02-13T08:08:04;26.38;;;11.40;;
3197;SDS011;1611;49.394;11.136;2023-02-13T08:10:31;16.80;;;10.55;;
3197;SDS011;1611;49.394;11.136;2023-02-13T08:13:16;21.20;;;11.57;;
3197;SDS011;1611;49.394;11.136;2023-02-13T08:15:43;16.40;;;10.52;;
3197;SDS011;1611;49.394;11.136;2023-02-13T08:18:11;22.58;;;13.77;;
3197;SDS011;1611;49.394;11.136;2023-02-13T08:20:39;24.42;;;13.43;;
3197;SDS011;1611;49.394;11.136;2023-02-13T08:23:06;21.55;;;11.32;;
3197;SDS011;1611;49.394;11.136;2023-02-13T08:25:36;19.58;;;11.48;;
3197;SDS011;1611;49.394;11.136;2023-02-13T08:28:04;22.15;;;11.38;;
3197;SDS011;1611;49.394;11.136;2023-02-13T08:30:31;18.85;;;11.60;;
3197;SDS011;1611;49.394;11.136;2023-02-13T08:32:58;21.35;;;12.13;;
3197;SDS011;1611;49.394;11.136;2023-02-13T08:35:24;28.92;;;14.07;;
3197;SDS011;1611;49.394;11.136;2023-02-13T08:37:55;19.65;;;11.95;;
3197;SDS011;1611;49.394;11.136;2023-02-13T08:40:21;25.85;;;13.70;;
3197;SDS011;1611;49.394;11.136;2023-02-13T08:42:48;27.08;;;13.90;;
3197;SDS011;1611;49.394;11.136;2023-02-13T08:45:15;23.45;;;14.07;;
3197;SDS011;1611;49.394;11.136;2023-02-13T08:47:42;22.25;;;13.40;;
3197;SDS011;1611;49.394;11.136;2023-02-13T08:50:09;26.25;;;15.23;;
3197;SDS011;1611;49.394;11.136;2023-02-13T08:52:36;22.40;;;14.77;;
3197;SDS011;1611;49.394;11.136;2023-02-13T08:55:04;21.55;;;13.30;;
3197;SDS011;1611;49.394;11.136;2023-02-13T08:57:31;22.92;;;13.30;;
3197;SDS011;1611;49.394;11.136;2023-02-13T08:59:58;23.75;;;12.93;;
3197;SDS011;1611;49.394;11.136;2023-02-13T09:02:25;24.10;;;13.63;;
3197;SDS011;1611;49.394;11.136;2023-02-13T09:04:52;27.60;;;14.65;;
3197;SDS011;1611;49.394;11.136;2023-02-13T09:07:18;23.73;;;13.25;;
3197;SDS011;1611;49.394;11.136;2023-02-13T09:09:45;21.80;;;12.27;;
3197;SDS011;1611;49.394;11.136;2023-02-13T09:12:13;21.00;;;12.75;;
3197;SDS011;1611;49.394;11.136;2023-02-13T09:14:40;18.90;;;12.73;;
3197;SDS011;1611;49.394;11.136;2023-02-13T09:17:07;18.70;;;12.25;;
3197;SDS011;1611;49.394;11.136;2023-02-13T09:19:33;21.52;;;12.25;;
3197;SDS011;1611;49.394;11.136;2023-02-13T09:22:00;24.38;;;13.27;;
3197;SDS011;1611;49.394;11.136;2023-02-13T09:24:27;22.15;;;12.35;;
3197;SDS011;1611;49.394;11.136;2023-02-13T09:26:54;20.67;;;13.13;;
3197;SDS011;1611;49.394;11.136;2023-02-13T09:29:22;24.83;;;13.00;;
3197;SDS011;1611;49.394;11.136;2023-02-13T09:31:49;21.60;;;13.23;;
3197;SDS011;1611;49.394;11.136;2023-02-13T09:34:16;28.13;;;14.07;;
3197;SDS011;1611;49.394;11.136;2023-02-13T09:36:43;21.75;;;12.80;;
3197;SDS011;1611;49.394;11.136;2023-02-13T09:39:10;21.65;;;12.65;;
3197;SDS011;1611;49.394;11.136;2023-02-13T09:41:37;20.30;;;13.15;;
3197;SDS011;1611;49.394;11.136;2023-02-13T09:44:06;19.90;;;13.00;;
3197;SDS011;1611;49.394;11.136;2023-02-13T09:46:59;18.85;;;12.40;;
3197;SDS011;1611;49.394;11.136;2023-02-13T09:49:29;22.52;;;12.70;;
3197;SDS011;1611;49.394;11.136;2023-02-13T09:52:00;19.38;;;11.02;;
3197;SDS011;1611;49.394;11.136;2023-02-13T09:54:27;18.93;;;12.20;;
3197;SDS011;1611;49.394;11.136;2023-02-13T09:56:56;16.73;;;10.97;;
3197;SDS011;1611;49.394;11.136;2023-02-13T09:59:34;21.40;;;11.67;;
3197;SDS011;1611;49.394;11.136;2023-02-13T10:02:16;16.07;;;11.57;;
3197;SDS011;1611;49.394;11.136;2023-02-13T10:04:59;17.30;;;11.30;;
3197;SDS011;1611;49.394;11.136;2023-02-13T10:07:36;20.93;;;11.37;;
3197;SDS011;1611;49.394;11.136;2023-02-13T10:10:12;18.13;;;11.23;;
3197;SDS011;1611;49.394;11.136;2023-02-13T10:13:00;19.00;;;10.67;;
3197;SDS011;1611;49.394;11.136;2023-02-13T10:15:35;16.37;;;10.73;;
3197;SDS011;1611;49.394;11.136;2023-02-13T10:18:09;15.90;;;10.97;;
3197;SDS011;1611;49.394;11.136;2023-02-13T10:20:41;12.57;;;10.30;;
3197;SDS011;1611;49.394;11.136;2023-02-13T10:23:16;16.23;;;10.83;;
3197;SDS011;1611;49.394;11.136;2023-02-13T10:25:49;14.30;;;10.83;;
3197;SDS011;1611;49.394;11.136;2023-02-13T10:28:24;14.10;;;11.20;;
3197;SDS011;1611;49.394;11.136;2023-02-13T10:30:57;15.50;;;10.87;;
3197;SDS011;1611;49.394;11.136;2023-02-13T10:33:29;14.53;;;10.77;;
3197;SDS011;1611;49.394;11.136;2023-02-13T10:36:00;15.57;;;11.60;;
3197;SDS011;1611;49.394;11.136;2023-02-13T10:38:30;18.40;;;12.33;;
3197;SDS011;1611;49.394;11.136;2023-02-13T10:41:19;19.73;;;12.00;;
3197;SDS011;1611;49.394;11.136;2023-02-13T10:44:01;15.60;;;11.87;;
3197;SDS011;1611;49.394;11.136;2023-02-13T10:46:45;18.30;;;11.70;;
3197;SDS011;1611;49.394;11.136;2023-02-13T10:49:26;21.30;;;11.87;;
3197;SDS011;1611;49.394;11.136;2023-02-13T10:52:10;17.03;;;11.80;;
3197;SDS011;1611;49.394;11.136;2023-02-13T10:54:58;13.43;;;11.00;;
3197;SDS011;1611;49.394;11.136;2023-02-13T10:57:38;29.97;;;12.30;;
3197;SDS011;1611;49.394;11.136;2023-02-13T11:00:17;20.63;;;12.17;;
3197;SDS011;1611;49.394;11.136;2023-02-13T11:02:48;16.40;;;11.00;;
3197;SDS011;1611;49.394;11.136;2023-02-13T11:05:17;18.77;;;11.87;;
3197;SDS011;1611;49.394;11.136;2023-02-13T11:07:47;17.33;;;11.80;;
3197;SDS011;1611;49.394;11.136;2023-02-13T11:10:15;15.67;;;11.03;;
3197;SDS011;1611;49.394;11.136;2023-02-13T11:12:43;21.97;;;13.43;;
3197;SDS011;1611;49.394;11.136;2023-02-13T11:15:19;22.50;;;12.17;;
3197;SDS011;1611;49.394;11.136;2023-02-13T11:17:49;16.83;;;11.07;;
3197;SDS011;1611;49.394;11.136;2023-02-13T11:20:33;19.37;;;11.73;;
3197;SDS011;1611;49.394;11.136;2023-02-13T11:23:23;20.23;;;12.43;;
3197;SDS011;1611;49.394;11.136;2023-02-13T11:25:59;14.20;;;10.50;;
3197;SDS011;1611;49.394;11.136;2023-02-13T11:28:29;18.53;;;11.77;;
3197;SDS011;1611;49.394;11.136;2023-02-13T11:31:09;17.30;;;11.60;;
3197;SDS011;1611;49.394;11.136;2023-02-13T11:33:38;19.63;;;12.50;;
3197;SDS011;1611;49.394;11.136;2023-02-13T11:36:08;13.50;;;10.73;;
3197;SDS011;1611;49.394;11.136;2023-02-13T11:38:38;16.53;;;11.27;;
3197;SDS011;1611;49.394;11.136;2023-02-13T11:41:06;16.13;;;10.50;;
3197;SDS011;1611;49.394;11.136;2023-02-13T11:43:36;21.93;;;11.90;;
3197;SDS011;1611;49.394;11.136;2023-02-13T11:46:12;60.77;;;31.83;;
3197;SDS011;1611;49.394;11.136;2023-02-13T11:48:44;20.23;;;11.60;;
3197;SDS011;1611;49.394;11.136;2023-02-13T11:51:36;17.10;;;12.57;;
3197;SDS011;1611;49.394;11.136;2023-02-13T11:54:05;17.30;;;12.47;;
3197;SDS011;1611;49.394;11.136;2023-02-13T11:56:48;15.30;;;11.60;;
3197;SDS011;1611;49.394;11.136;2023-02-13T11:59:16;16.40;;;11.37;;
3197;SDS011;1611;49.394;11.136;2023-02-13T12:01:46;14.60;;;10.30;;
3197;SDS011;1611;49.394;11.136;2023-02-13T12:04:27;16.10;;;10.50;;
3197;SDS011;1611;49.394;11.136;2023-02-13T12:06:59;14.57;;;11.17;;
3197;SDS011;1611;49.394;11.136;2023-02-13T12:09:27;14.50;;;10.10;;
3197;SDS011;1611;49.394;11.136;2023-02-13T12:11:55;14.13;;;10.83;;
3197;SDS011;1611;49.394;11.136;2023-02-13T12:14:26;10.93;;;9.30;;
3197;SDS011;1611;49.394;11.136;2023-02-13T12:16:56;11.23;;;8.90;;
3197;SDS011;1611;49.394;11.136;2023-02-13T12:19:27;10.10;;;8.57;;
3197;SDS011;1611;49.394;11.136;2023-02-13T12:22:04;15.17;;;9.27;;
3197;SDS011;1611;49.394;11.136;2023-02-13T12:28:01;7.40;;;6.70;;
3197;SDS011;1611;49.394;11.136;2023-02-13T12:30:43;10.43;;;7.93;;
3197;SDS011;1611;49.394;11.136;2023-02-13T12:33:25;10.33;;;7.63;;
3197;SDS011;1611;49.394;11.136;2023-02-13T12:36:05;11.10;;;7.50;;
3197;SDS011;1611;49.394;11.136;2023-02-13T12:38:44;11.17;;;8.33;;
3197;SDS011;1611;49.394;11.136;2023-02-13T12:41:22;9.47;;;8.47;;
3197;SDS011;1611;49.394;11.136;2023-02-13T12:44:10;8.17;;;6.53;;
3197;SDS011;1611;49.394;11.136;2023-02-13T12:47:04;10.67;;;7.17;;
3197;SDS011;1611;49.394;11.136;2023-02-13T12:49:45;36.17;;;19.80;;
3197;SDS011;1611;49.394;11.136;2023-02-13T12:52:28;9.73;;;6.80;;
3197;SDS011;1611;49.394;11.136;2023-02-13T12:55:12;22.10;;;6.13;;
3197;SDS011;1611;49.394;11.136;2023-02-13T12:57:53;6.67;;;5.50;;
3197;SDS011;1611;49.394;11.136;2023-02-13T13:00:29;6.50;;;4.90;;
3197;SDS011;1611;49.394;11.136;2023-02-13T13:03:14;6.20;;;5.60;;
3197;SDS011;1611;49.394;11.136;2023-02-13T13:06:00;5.70;;;5.20;;
3197;SDS011;1611;49.394;11.136;2023-02-13T13:08:52;5.27;;;4.77;;
3197;SDS011;1611;49.394;11.136;2023-02-13T13:14:42;5.93;;;5.27;;
3197;SDS011;1611;49.394;11.136;2023-02-13T13:17:18;5.77;;;5.00;;
3197;SDS011;1611;49.394;11.136;2023-02-13T13:19:54;6.73;;;4.80;;
3197;SDS011;1611;49.394;11.136;2023-02-13T13:22:29;5.43;;;4.90;;
3197;SDS011;1611;49.394;11.136;2023-02-13T13:25:02;4.63;;;4.23;;
3197;SDS011;1611;49.394;11.136;2023-02-13T13:27:40;4.93;;;4.53;;
3197;SDS011;1611;49.394;11.136;2023-02-13T13:30:12;4.27;;;4.03;;
3197;SDS011;1611;49.394;11.136;2023-02-13T13:32:42;5.73;;;5.03;;
3197;SDS011;1611;49.394;11.136;2023-02-13T13:35:13;5.37;;;4.93;;
3197;SDS011;1611;49.394;11.136;2023-02-13T13:37:41;5.67;;;5.17;;
3197;SDS011;1611;49.394;11.136;2023-02-13T13:40:28;5.80;;;5.30;;
3197;SDS011;1611;49.394;11.136;2023-02-13T13:43:07;6.17;;;4.97;;
3197;SDS011;1611;49.394;11.136;2023-02-13T13:45:45;5.70;;;5.20;;
3197;SDS011;1611;49.394;11.136;2023-02-13T13:48:33;7.83;;;5.50;;
3197;SDS011;1611;49.394;11.136;2023-02-13T13:51:15;7.60;;;4.90;;
3197;SDS011;1611;49.394;11.136;2023-02-13T13:57:05;6.93;;;6.27;;
3197;SDS011;1611;49.394;11.136;2023-02-13T14:05:18;4.97;;;4.57;;
3197;SDS011;1611;49.394;11.136;2023-02-13T14:07:51;8.10;;;5.93;;
3197;SDS011;1611;49.394;11.136;2023-02-13T14:13:29;7.90;;;7.10;;
3197;SDS011;1611;49.394;11.136;2023-02-13T14:15:59;7.10;;;6.40;;
3197;SDS011;1611;49.394;11.136;2023-02-13T14:18:26;6.83;;;6.13;;
3197;SDS011;1611;49.394;11.136;2023-02-13T14:20:55;8.07;;;6.73;;
3197;SDS011;1611;49.394;11.136;2023-02-13T14:23:26;9.50;;;6.80;;
3197;SDS011;1611;49.394;11.136;2023-02-13T14:26:09;10.33;;;7.53;;
3197;SDS011;1611;49.394;11.136;2023-02-13T14:28:55;9.73;;;6.90;;
3197;SDS011;1611;49.394;11.136;2023-02-13T14:31:26;8.77;;;7.07;;
3197;SDS011;1611;49.394;11.136;2023-02-13T14:33:56;7.60;;;5.70;;
3197;SDS011;1611;49.394;11.136;2023-02-13T14:36:26;7.27;;;6.20;;
3197;SDS011;1611;49.394;11.136;2023-02-13T14:38:57;7.63;;;6.20;;
3197;SDS011;1611;49.394;11.136;2023-02-13T14:41:39;10.50;;;5.77;;
3197;SDS011;1611;49.394;11.136;2023-02-13T14:44:10;5.90;;;5.00;;
3197;SDS011;1611;49.394;11.136;2023-02-13T14:46:44;6.63;;;5.57;;
3197;SDS011;1611;49.394;11.136;2023-02-13T14:49:14;7.97;;;5.23;;
3197;SDS011;1611;49.394;11.136;2023-02-13T14:51:44;7.87;;;5.70;;
3197;SDS011;1611;49.394;11.136;2023-02-13T14:54:15;6.80;;;5.93;;
3197;SDS011;1611;49.394;11.136;2023-02-13T14:56:48;9.03;;;6.70;;
3197;SDS011;1611;49.394;11.136;2023-02-13T14:59:17;11.93;;;7.10;;
3197;SDS011;1611;49.394;11.136;2023-02-13T15:01:49;6.60;;;4.77;;
3197;SDS011;1611;49.394;11.136;2023-02-13T15:04:21;6.10;;;5.50;;
3197;SDS011;1611;49.394;11.136;2023-02-13T15:06:52;5.67;;;5.07;;
3197;SDS011;1611;49.394;11.136;2023-02-13T15:09:23;7.60;;;5.30;;
3197;SDS011;1611;49.394;11.136;2023-02-13T15:11:56;9.87;;;6.20;;
3197;SDS011;1611;49.394;11.136;2023-02-13T15:14:26;6.30;;;5.63;;
3197;SDS011;1611;49.394;11.136;2023-02-13T15:16:58;7.70;;;6.37;;
3197;SDS011;1611;49.394;11.136;2023-02-13T15:19:30;7.00;;;5.63;;
3197;SDS011;1611;49.394;11.136;2023-02-13T15:21:59;8.20;;;6.07;;
3197;SDS011;1611;49.394;11.136;2023-02-13T15:24:30;8.00;;;4.83;;
3197;SDS011;1611;49.394;11.136;2023-02-13T15:27:02;5.83;;;5.23;;
3197;SDS011;1611;49.394;11.136;2023-02-13T15:29:30;10.13;;;6.80;;
3197;SDS011;1611;49.394;11.136;2023-02-13T15:31:59;7.17;;;6.27;;
3197;SDS011;1611;49.394;11.136;2023-02-13T15:34:26;12.63;;;7.00;;
3197;SDS011;1611;49.394;11.136;2023-02-13T15:36:56;6.88;;;6.03;;
3197;SDS011;1611;49.394;11.136;2023-02-13T15:39:23;7.30;;;5.57;;
3197;SDS011;1611;49.394;11.136;2023-02-13T15:41:53;7.77;;;6.67;;